Aviation Digital Data Service (ADDS)

Output produced by METARs form (0114 UTC 20 January 2022)
found at http://www.aviationweather.gov/metar/data/
 
METAR text: KCYS 200108Z 16006KT 4SM -SN BR BKN025 OVC050 M12/M13 A3024 RMK AO2 P0000 T11171133
Conditions at: KCYS (CHEYENNE , WY, US) observed 0108 UTC 20 January 2022
Temperature: -11.7°C (11°F)
Dewpoint: -13.3°C ( 8°F) [RH = 88%]
Pressure (altimeter): 30.24 inches Hg (1024.1 mb)
Winds: from the SSE (160 degrees) at 7 MPH (6 knots; 3.1 m/s)
Visibility: 4 miles ( 6 km)
Ceiling: 2500 feet AGL
Clouds: broken clouds at 2500 feet AGL
overcast cloud deck at 5000 feet AGL
Weather: -SN BR  (light snow, mist)

METAR text: KCYS 200053Z 16006KT 4SM -SN BR BKN031 BKN050 OVC080 M11/M13 A3024 RMK AO2 SLP316 P0000 T11111128
Conditions at: KCYS (CHEYENNE , WY, US) observed 0053 UTC 20 January 2022
Temperature: -11.1°C (12°F)
Dewpoint: -12.8°C ( 9°F) [RH = 87%]
Pressure (altimeter): 30.24 inches Hg (1024.1 mb)
[Sea-level pressure: 1031.6 mb]
Winds: from the SSE (160 degrees) at 7 MPH (6 knots; 3.1 m/s)
Visibility: 4 miles ( 6 km)
Ceiling: 3100 feet AGL
Clouds: broken clouds at 3100 feet AGL
broken clouds at 5000 feet AGL
overcast cloud deck at 8000 feet AGL
Weather: -SN BR  (light snow, mist)

Forecast for: KCYS (CHEYENNE , WY, US)
Text: KCYS 192323Z 2000/2024 14007KT 2SM -SN OVC012
Forecast period: 0000 to 0200 UTC 20 January 2022
Forecast type: FROM: standard forecast or significant change
Winds: from the SE (140 degrees) at 8 MPH (7 knots; 3.6 m/s)
Visibility: 2.00 miles (3.22 km)
Ceiling: 1200 feet AGL
Clouds: overcast cloud deck at 1200 feet AGL
Weather: -SN  (light snow)
Text: FM200200 17007KT 6SM BR OVC014
Forecast period: 0200 to 0500 UTC 20 January 2022
Forecast type: FROM: standard forecast or significant change
Winds: from the S (170 degrees) at 8 MPH (7 knots; 3.6 m/s)
Visibility: 6 miles (10 km)
Ceiling: 1400 feet AGL
Clouds: overcast cloud deck at 1400 feet AGL
Weather: BR  (mist)
Text: FM200500 20007KT P6SM BKN035
Forecast period: 0500 to 1000 UTC 20 January 2022
Forecast type: FROM: standard forecast or significant change
Winds: from the SSW (200 degrees) at 8 MPH (7 knots; 3.6 m/s)
Visibility: 6 or more miles (10+ km)
Ceiling: 3500 feet AGL
Clouds: broken clouds at 3500 feet AGL
Weather: no significant weather forecast for this period
Text: FM201000 23006KT P6SM BKN100
Forecast period: 1000 UTC 20 January 2022 to 0000 UTC 21 January 2022
Forecast type: FROM: standard forecast or significant change
Winds: from the SW (230 degrees) at 7 MPH (6 knots; 3.1 m/s)
Visibility: 6 or more miles (10+ km)
Ceiling: 10000 feet AGL
Clouds: broken clouds at 10000 feet AGL
Weather: no significant weather forecast for this period